Terminal Aerodrome Forecast
Issued by NWS Missoula, MT

Home | Current Version | Previous Version | Text Only | Print | Product List | Glossary On
Versions: 1 2 3 4 5 6 7 8 9 10 11 12 13 14 15 16 17 18 19 20
000
FTUS45 KMSO 270635 AAA
TAFGPI
TAF AMD
KGPI 270635Z 2707/2806 VRB03KT 2SM BR SCT001
      TEMPO 2707/2711 1/4SM FG OVC001
     FM271100 00000KT 1/4SM FG VV001
     FM271500 VRB03KT P6SM BKN150=

USA.gov is the U.S. government's official web portal to all federal, state and local government web resources and services.